sensor_id;sensor_type;location;lat;lon;timestamp;P1;durP1;ratioP1;P2;durP2;ratioP2
74528;SDS011;63009;52.584;5.932;2023-03-01T00:02:03;18.93;;;10.37;;
74528;SDS011;63009;52.584;5.932;2023-03-01T00:04:29;21.58;;;11.55;;
74528;SDS011;63009;52.584;5.932;2023-03-01T00:06:55;20.58;;;11.35;;
74528;SDS011;63009;52.584;5.932;2023-03-01T00:09:21;20.00;;;10.20;;
74528;SDS011;63009;52.584;5.932;2023-03-01T00:11:46;19.30;;;9.52;;
74528;SDS011;63009;52.584;5.932;2023-03-01T00:14:11;18.50;;;10.27;;
74528;SDS011;63009;52.584;5.932;2023-03-01T00:16:41;17.90;;;9.20;;
74528;SDS011;63009;52.584;5.932;2023-03-01T00:19:08;19.35;;;10.52;;
74528;SDS011;63009;52.584;5.932;2023-03-01T00:21:37;17.65;;;9.90;;
74528;SDS011;63009;52.584;5.932;2023-03-01T00:24:02;16.98;;;9.02;;
74528;SDS011;63009;52.584;5.932;2023-03-01T00:26:28;19.48;;;9.15;;
74528;SDS011;63009;52.584;5.932;2023-03-01T00:28:54;17.63;;;9.48;;
74528;SDS011;63009;52.584;5.932;2023-03-01T00:31:22;18.40;;;9.35;;
74528;SDS011;63009;52.584;5.932;2023-03-01T00:33:50;18.15;;;9.70;;
74528;SDS011;63009;52.584;5.932;2023-03-01T00:36:18;17.50;;;9.43;;
74528;SDS011;63009;52.584;5.932;2023-03-01T00:38:44;20.35;;;9.93;;
74528;SDS011;63009;52.584;5.932;2023-03-01T00:41:12;18.95;;;10.07;;
74528;SDS011;63009;52.584;5.932;2023-03-01T00:43:39;19.35;;;9.93;;
74528;SDS011;63009;52.584;5.932;2023-03-01T00:46:06;19.08;;;10.32;;
74528;SDS011;63009;52.584;5.932;2023-03-01T00:48:33;19.25;;;9.27;;
74528;SDS011;63009;52.584;5.932;2023-03-01T00:51:06;19.27;;;9.45;;
74528;SDS011;63009;52.584;5.932;2023-03-01T00:53:33;20.33;;;10.23;;
74528;SDS011;63009;52.584;5.932;2023-03-01T00:55:59;18.63;;;9.52;;
74528;SDS011;63009;52.584;5.932;2023-03-01T00:58:24;19.83;;;10.40;;
74528;SDS011;63009;52.584;5.932;2023-03-01T01:00:49;19.40;;;9.75;;
74528;SDS011;63009;52.584;5.932;2023-03-01T01:03:15;19.40;;;9.63;;
74528;SDS011;63009;52.584;5.932;2023-03-01T01:05:40;16.70;;;8.93;;
74528;SDS011;63009;52.584;5.932;2023-03-01T01:08:05;16.23;;;8.27;;
74528;SDS011;63009;52.584;5.932;2023-03-01T01:10:33;18.02;;;9.20;;
74528;SDS011;63009;52.584;5.932;2023-03-01T01:13:01;16.35;;;8.57;;
74528;SDS011;63009;52.584;5.932;2023-03-01T01:15:26;15.27;;;7.77;;
74528;SDS011;63009;52.584;5.932;2023-03-01T01:17:51;16.35;;;8.18;;
74528;SDS011;63009;52.584;5.932;2023-03-01T01:20:17;14.37;;;7.40;;
74528;SDS011;63009;52.584;5.932;2023-03-01T01:22:42;14.48;;;7.60;;
74528;SDS011;63009;52.584;5.932;2023-03-01T01:25:07;15.80;;;7.90;;
74528;SDS011;63009;52.584;5.932;2023-03-01T01:27:33;17.23;;;8.20;;
74528;SDS011;63009;52.584;5.932;2023-03-01T01:29:59;17.90;;;7.78;;
74528;SDS011;63009;52.584;5.932;2023-03-01T01:32:24;19.70;;;9.97;;
74528;SDS011;63009;52.584;5.932;2023-03-01T01:34:49;20.75;;;10.68;;
74528;SDS011;63009;52.584;5.932;2023-03-01T01:37:15;22.77;;;11.25;;
74528;SDS011;63009;52.584;5.932;2023-03-01T01:39:40;22.73;;;11.07;;
74528;SDS011;63009;52.584;5.932;2023-03-01T01:42:05;23.33;;;12.77;;
74528;SDS011;63009;52.584;5.932;2023-03-01T01:44:33;22.03;;;11.23;;
74528;SDS011;63009;52.584;5.932;2023-03-01T01:47:00;22.70;;;12.20;;
74528;SDS011;63009;52.584;5.932;2023-03-01T01:49:37;23.20;;;12.40;;
74528;SDS011;63009;52.584;5.932;2023-03-01T01:52:20;24.30;;;12.70;;
74528;SDS011;63009;52.584;5.932;2023-03-01T01:55:05;29.88;;;13.43;;
74528;SDS011;63009;52.584;5.932;2023-03-01T01:57:36;25.52;;;12.52;;
74528;SDS011;63009;52.584;5.932;2023-03-01T02:00:10;22.30;;;12.68;;
74528;SDS011;63009;52.584;5.932;2023-03-01T02:02:39;22.20;;;12.02;;
74528;SDS011;63009;52.584;5.932;2023-03-01T02:05:28;25.88;;;12.02;;
74528;SDS011;63009;52.584;5.932;2023-03-01T02:08:01;24.88;;;12.30;;
74528;SDS011;63009;52.584;5.932;2023-03-01T02:10:27;26.17;;;12.35;;
74528;SDS011;63009;52.584;5.932;2023-03-01T02:12:53;25.95;;;14.02;;
74528;SDS011;63009;52.584;5.932;2023-03-01T02:15:19;27.35;;;13.68;;
74528;SDS011;63009;52.584;5.932;2023-03-01T02:17:44;27.50;;;13.20;;
74528;SDS011;63009;52.584;5.932;2023-03-01T02:20:14;25.75;;;13.02;;
74528;SDS011;63009;52.584;5.932;2023-03-01T02:22:48;24.80;;;12.45;;
74528;SDS011;63009;52.584;5.932;2023-03-01T02:25:23;23.73;;;11.50;;
74528;SDS011;63009;52.584;5.932;2023-03-01T02:28:16;25.02;;;12.70;;
74528;SDS011;63009;52.584;5.932;2023-03-01T02:30:42;24.08;;;11.85;;
74528;SDS011;63009;52.584;5.932;2023-03-01T02:33:28;22.88;;;13.00;;
74528;SDS011;63009;52.584;5.932;2023-03-01T02:35:57;23.63;;;11.15;;
74528;SDS011;63009;52.584;5.932;2023-03-01T02:38:25;28.95;;;12.95;;
74528;SDS011;63009;52.584;5.932;2023-03-01T02:40:51;30.25;;;13.15;;
74528;SDS011;63009;52.584;5.932;2023-03-01T02:43:17;28.35;;;14.35;;
74528;SDS011;63009;52.584;5.932;2023-03-01T02:45:51;26.55;;;12.48;;
74528;SDS011;63009;52.584;5.932;2023-03-01T02:48:18;28.20;;;12.40;;
74528;SDS011;63009;52.584;5.932;2023-03-01T02:53:32;25.52;;;12.70;;
74528;SDS011;63009;52.584;5.932;2023-03-01T02:56:04;27.52;;;12.00;;
74528;SDS011;63009;52.584;5.932;2023-03-01T02:58:30;25.92;;;13.23;;
74528;SDS011;63009;52.584;5.932;2023-03-01T03:00:55;22.80;;;11.48;;
74528;SDS011;63009;52.584;5.932;2023-03-01T03:03:21;25.27;;;11.60;;
74528;SDS011;63009;52.584;5.932;2023-03-01T03:05:47;23.10;;;11.55;;
74528;SDS011;63009;52.584;5.932;2023-03-01T03:08:13;20.50;;;10.45;;
74528;SDS011;63009;52.584;5.932;2023-03-01T03:10:41;20.80;;;10.65;;
74528;SDS011;63009;52.584;5.932;2023-03-01T03:13:09;17.05;;;9.40;;
74528;SDS011;63009;52.584;5.932;2023-03-01T03:15:36;17.92;;;9.52;;
74528;SDS011;63009;52.584;5.932;2023-03-01T03:18:04;20.38;;;9.90;;
74528;SDS011;63009;52.584;5.932;2023-03-01T03:20:31;16.95;;;9.38;;
74528;SDS011;63009;52.584;5.932;2023-03-01T03:22:57;21.90;;;10.50;;
74528;SDS011;63009;52.584;5.932;2023-03-01T03:25:23;19.35;;;9.52;;
74528;SDS011;63009;52.584;5.932;2023-03-01T03:27:50;20.65;;;9.77;;
74528;SDS011;63009;52.584;5.932;2023-03-01T03:30:21;20.58;;;10.15;;
74528;SDS011;63009;52.584;5.932;2023-03-01T03:32:48;17.88;;;8.77;;
74528;SDS011;63009;52.584;5.932;2023-03-01T03:35:20;17.58;;;9.88;;
74528;SDS011;63009;52.584;5.932;2023-03-01T03:37:47;23.15;;;10.55;;
74528;SDS011;63009;52.584;5.932;2023-03-01T03:43:07;25.33;;;10.68;;
74528;SDS011;63009;52.584;5.932;2023-03-01T03:45:38;21.52;;;10.65;;
74528;SDS011;63009;52.584;5.932;2023-03-01T03:48:04;20.90;;;10.15;;
74528;SDS011;63009;52.584;5.932;2023-03-01T03:50:32;21.73;;;10.85;;
74528;SDS011;63009;52.584;5.932;2023-03-01T03:52:57;29.17;;;12.13;;
74528;SDS011;63009;52.584;5.932;2023-03-01T03:55:25;30.98;;;11.13;;
74528;SDS011;63009;52.584;5.932;2023-03-01T03:57:55;26.60;;;10.60;;
74528;SDS011;63009;52.584;5.932;2023-03-01T04:00:22;56.40;;;14.02;;
74528;SDS011;63009;52.584;5.932;2023-03-01T04:02:49;26.15;;;11.57;;
74528;SDS011;63009;52.584;5.932;2023-03-01T04:05:15;41.28;;;12.75;;
74528;SDS011;63009;52.584;5.932;2023-03-01T04:07:42;52.00;;;14.05;;
74528;SDS011;63009;52.584;5.932;2023-03-01T04:10:13;40.53;;;14.50;;
74528;SDS011;63009;52.584;5.932;2023-03-01T04:12:41;40.70;;;12.32;;
74528;SDS011;63009;52.584;5.932;2023-03-01T04:15:08;54.72;;;12.52;;
74528;SDS011;63009;52.584;5.932;2023-03-01T04:17:41;56.70;;;13.93;;
74528;SDS011;63009;52.584;5.932;2023-03-01T04:20:15;49.95;;;13.18;;
74528;SDS011;63009;52.584;5.932;2023-03-01T04:22:43;89.28;;;15.52;;
74528;SDS011;63009;52.584;5.932;2023-03-01T04:25:12;59.17;;;13.75;;
74528;SDS011;63009;52.584;5.932;2023-03-01T04:27:39;58.40;;;14.82;;
74528;SDS011;63009;52.584;5.932;2023-03-01T04:30:05;40.42;;;14.18;;
74528;SDS011;63009;52.584;5.932;2023-03-01T04:32:31;117.68;;;18.05;;
74528;SDS011;63009;52.584;5.932;2023-03-01T04:34:56;93.05;;;16.20;;
74528;SDS011;63009;52.584;5.932;2023-03-01T04:37:22;54.60;;;13.60;;
74528;SDS011;63009;52.584;5.932;2023-03-01T04:39:47;70.97;;;14.87;;
74528;SDS011;63009;52.584;5.932;2023-03-01T04:42:12;36.77;;;13.27;;
74528;SDS011;63009;52.584;5.932;2023-03-01T04:44:38;36.88;;;12.05;;
74528;SDS011;63009;52.584;5.932;2023-03-01T04:47:03;66.50;;;13.23;;
74528;SDS011;63009;52.584;5.932;2023-03-01T04:49:29;87.60;;;15.70;;
74528;SDS011;63009;52.584;5.932;2023-03-01T04:51:54;48.45;;;13.15;;
74528;SDS011;63009;52.584;5.932;2023-03-01T04:54:19;36.47;;;13.18;;
74528;SDS011;63009;52.584;5.932;2023-03-01T04:56:45;51.87;;;14.03;;
74528;SDS011;63009;52.584;5.932;2023-03-01T04:59:10;29.33;;;12.07;;
74528;SDS011;63009;52.584;5.932;2023-03-01T05:01:37;26.20;;;11.38;;
74528;SDS011;63009;52.584;5.932;2023-03-01T05:04:03;34.05;;;11.45;;
74528;SDS011;63009;52.584;5.932;2023-03-01T05:06:30;37.38;;;13.57;;
74528;SDS011;63009;52.584;5.932;2023-03-01T05:08:56;24.33;;;11.95;;
74528;SDS011;63009;52.584;5.932;2023-03-01T05:11:21;33.88;;;11.57;;
74528;SDS011;63009;52.584;5.932;2023-03-01T05:13:46;33.22;;;12.07;;
74528;SDS011;63009;52.584;5.932;2023-03-01T05:16:12;53.00;;;14.05;;
74528;SDS011;63009;52.584;5.932;2023-03-01T05:18:37;46.25;;;12.48;;
74528;SDS011;63009;52.584;5.932;2023-03-01T05:23:31;25.02;;;10.93;;
74528;SDS011;63009;52.584;5.932;2023-03-01T05:25:58;32.85;;;11.88;;
74528;SDS011;63009;52.584;5.932;2023-03-01T05:28:24;28.50;;;10.70;;
74528;SDS011;63009;52.584;5.932;2023-03-01T05:30:50;24.13;;;10.57;;
74528;SDS011;63009;52.584;5.932;2023-03-01T05:33:16;21.05;;;11.02;;
74528;SDS011;63009;52.584;5.932;2023-03-01T05:35:42;19.73;;;9.88;;
74528;SDS011;63009;52.584;5.932;2023-03-01T05:38:09;43.40;;;10.57;;
74528;SDS011;63009;52.584;5.932;2023-03-01T05:40:39;22.65;;;10.70;;
74528;SDS011;63009;52.584;5.932;2023-03-01T05:43:05;33.47;;;10.32;;
74528;SDS011;63009;52.584;5.932;2023-03-01T05:45:31;26.27;;;11.30;;
74528;SDS011;63009;52.584;5.932;2023-03-01T05:47:59;19.80;;;10.00;;
74528;SDS011;63009;52.584;5.932;2023-03-01T05:50:26;22.02;;;9.77;;
74528;SDS011;63009;52.584;5.932;2023-03-01T05:53:03;21.38;;;9.65;;
74528;SDS011;63009;52.584;5.932;2023-03-01T05:55:31;23.88;;;10.50;;
74528;SDS011;63009;52.584;5.932;2023-03-01T05:58:00;20.92;;;10.73;;
74528;SDS011;63009;52.584;5.932;2023-03-01T06:00:27;20.80;;;9.18;;
74528;SDS011;63009;52.584;5.932;2023-03-01T06:02:54;19.90;;;9.68;;
74528;SDS011;63009;52.584;5.932;2023-03-01T06:05:19;19.35;;;9.45;;
74528;SDS011;63009;52.584;5.932;2023-03-01T06:07:45;19.50;;;10.25;;
74528;SDS011;63009;52.584;5.932;2023-03-01T06:10:11;19.27;;;10.30;;
74528;SDS011;63009;52.584;5.932;2023-03-01T06:12:37;21.23;;;10.15;;
74528;SDS011;63009;52.584;5.932;2023-03-01T06:15:04;18.73;;;9.20;;
74528;SDS011;63009;52.584;5.932;2023-03-01T06:17:32;17.40;;;9.23;;
74528;SDS011;63009;52.584;5.932;2023-03-01T06:20:03;16.95;;;9.30;;
74528;SDS011;63009;52.584;5.932;2023-03-01T06:22:30;20.73;;;9.15;;
74528;SDS011;63009;52.584;5.932;2023-03-01T06:24:55;20.47;;;10.40;;
74528;SDS011;63009;52.584;5.932;2023-03-01T06:27:20;19.00;;;9.70;;
74528;SDS011;63009;52.584;5.932;2023-03-01T06:29:45;17.45;;;8.43;;
74528;SDS011;63009;52.584;5.932;2023-03-01T06:32:11;19.90;;;9.37;;
74528;SDS011;63009;52.584;5.932;2023-03-01T06:34:36;18.63;;;9.80;;
74528;SDS011;63009;52.584;5.932;2023-03-01T06:37:01;24.27;;;9.23;;
74528;SDS011;63009;52.584;5.932;2023-03-01T06:39:30;22.20;;;10.35;;
74528;SDS011;63009;52.584;5.932;2023-03-01T06:41:55;16.70;;;8.68;;
74528;SDS011;63009;52.584;5.932;2023-03-01T06:44:21;25.98;;;9.93;;
74528;SDS011;63009;52.584;5.932;2023-03-01T06:46:46;20.43;;;9.77;;
74528;SDS011;63009;52.584;5.932;2023-03-01T06:49:11;17.43;;;9.03;;
74528;SDS011;63009;52.584;5.932;2023-03-01T06:51:37;20.47;;;10.63;;
74528;SDS011;63009;52.584;5.932;2023-03-01T06:54:03;17.60;;;9.98;;
74528;SDS011;63009;52.584;5.932;2023-03-01T06:56:29;19.77;;;10.60;;
74528;SDS011;63009;52.584;5.932;2023-03-01T06:58:55;29.70;;;9.93;;
74528;SDS011;63009;52.584;5.932;2023-03-01T07:01:20;27.07;;;10.40;;
74528;SDS011;63009;52.584;5.932;2023-03-01T07:03:45;20.27;;;9.83;;
74528;SDS011;63009;52.584;5.932;2023-03-01T07:06:11;18.48;;;9.27;;
74528;SDS011;63009;52.584;5.932;2023-03-01T07:08:36;20.88;;;8.88;;
74528;SDS011;63009;52.584;5.932;2023-03-01T07:11:01;14.93;;;8.60;;
74528;SDS011;63009;52.584;5.932;2023-03-01T07:13:28;17.33;;;9.68;;
74528;SDS011;63009;52.584;5.932;2023-03-01T07:15:53;17.55;;;8.98;;
74528;SDS011;63009;52.584;5.932;2023-03-01T07:18:18;21.60;;;9.93;;
74528;SDS011;63009;52.584;5.932;2023-03-01T07:20:44;22.17;;;9.23;;
74528;SDS011;63009;52.584;5.932;2023-03-01T07:23:09;14.97;;;8.07;;
74528;SDS011;63009;52.584;5.932;2023-03-01T07:25:34;16.27;;;8.60;;
74528;SDS011;63009;52.584;5.932;2023-03-01T07:28:00;17.57;;;8.47;;
74528;SDS011;63009;52.584;5.932;2023-03-01T07:30:25;15.07;;;8.50;;
74528;SDS011;63009;52.584;5.932;2023-03-01T07:32:53;16.45;;;8.52;;
74528;SDS011;63009;52.584;5.932;2023-03-01T07:35:19;17.77;;;9.07;;
74528;SDS011;63009;52.584;5.932;2023-03-01T07:37:44;16.80;;;9.60;;
74528;SDS011;63009;52.584;5.932;2023-03-01T07:40:10;20.90;;;8.83;;
74528;SDS011;63009;52.584;5.932;2023-03-01T07:42:36;18.25;;;8.95;;
74528;SDS011;63009;52.584;5.932;2023-03-01T07:45:02;16.88;;;8.77;;
74528;SDS011;63009;52.584;5.932;2023-03-01T07:47:28;16.38;;;9.15;;
74528;SDS011;63009;52.584;5.932;2023-03-01T07:49:53;17.23;;;9.47;;
74528;SDS011;63009;52.584;5.932;2023-03-01T07:52:18;19.73;;;9.90;;
74528;SDS011;63009;52.584;5.932;2023-03-01T07:54:44;26.67;;;10.77;;
74528;SDS011;63009;52.584;5.932;2023-03-01T07:57:09;26.27;;;13.30;;
74528;SDS011;63009;52.584;5.932;2023-03-01T07:59:35;21.13;;;11.43;;
74528;SDS011;63009;52.584;5.932;2023-03-01T08:02:00;22.67;;;11.73;;
74528;SDS011;63009;52.584;5.932;2023-03-01T08:04:26;23.15;;;12.13;;
74528;SDS011;63009;52.584;5.932;2023-03-01T08:06:51;22.10;;;12.23;;
74528;SDS011;63009;52.584;5.932;2023-03-01T08:09:17;22.02;;;11.68;;
74528;SDS011;63009;52.584;5.932;2023-03-01T08:11:43;23.47;;;13.10;;
74528;SDS011;63009;52.584;5.932;2023-03-01T08:14:08;23.65;;;13.18;;
74528;SDS011;63009;52.584;5.932;2023-03-01T08:16:33;29.13;;;16.30;;
74528;SDS011;63009;52.584;5.932;2023-03-01T08:19:03;24.52;;;12.98;;
74528;SDS011;63009;52.584;5.932;2023-03-01T08:21:32;24.98;;;13.95;;
74528;SDS011;63009;52.584;5.932;2023-03-01T08:23:59;23.92;;;12.85;;
74528;SDS011;63009;52.584;5.932;2023-03-01T08:26:25;22.80;;;12.77;;
74528;SDS011;63009;52.584;5.932;2023-03-01T08:28:50;21.43;;;11.73;;
74528;SDS011;63009;52.584;5.932;2023-03-01T08:31:17;23.57;;;12.60;;
74528;SDS011;63009;52.584;5.932;2023-03-01T08:33:43;24.80;;;14.48;;
74528;SDS011;63009;52.584;5.932;2023-03-01T08:36:08;24.17;;;14.20;;
74528;SDS011;63009;52.584;5.932;2023-03-01T08:38:35;26.45;;;14.80;;
74528;SDS011;63009;52.584;5.932;2023-03-01T08:41:01;25.95;;;14.50;;
74528;SDS011;63009;52.584;5.932;2023-03-01T08:43:27;23.02;;;13.75;;
74528;SDS011;63009;52.584;5.932;2023-03-01T08:45:53;23.30;;;13.15;;
74528;SDS011;63009;52.584;5.932;2023-03-01T08:48:18;26.50;;;14.67;;
74528;SDS011;63009;52.584;5.932;2023-03-01T08:50:44;28.27;;;15.53;;
74528;SDS011;63009;52.584;5.932;2023-03-01T08:53:09;24.33;;;14.85;;
74528;SDS011;63009;52.584;5.932;2023-03-01T08:55:34;23.30;;;14.87;;
74528;SDS011;63009;52.584;5.932;2023-03-01T08:58:00;25.43;;;14.33;;
74528;SDS011;63009;52.584;5.932;2023-03-01T09:00:25;24.05;;;14.40;;
74528;SDS011;63009;52.584;5.932;2023-03-01T09:02:50;25.20;;;14.50;;
74528;SDS011;63009;52.584;5.932;2023-03-01T09:05:16;27.07;;;13.83;;
74528;SDS011;63009;52.584;5.932;2023-03-01T09:07:41;24.63;;;13.98;;
74528;SDS011;63009;52.584;5.932;2023-03-01T09:10:06;26.70;;;14.23;;
74528;SDS011;63009;52.584;5.932;2023-03-01T09:12:32;25.58;;;15.02;;
74528;SDS011;63009;52.584;5.932;2023-03-01T09:14:57;26.60;;;13.20;;
74528;SDS011;63009;52.584;5.932;2023-03-01T09:17:23;25.57;;;14.90;;
74528;SDS011;63009;52.584;5.932;2023-03-01T09:19:48;28.03;;;15.03;;
74528;SDS011;63009;52.584;5.932;2023-03-01T09:22:14;24.27;;;13.77;;
74528;SDS011;63009;52.584;5.932;2023-03-01T09:24:39;25.40;;;14.25;;
74528;SDS011;63009;52.584;5.932;2023-03-01T09:27:05;23.30;;;13.48;;
74528;SDS011;63009;52.584;5.932;2023-03-01T09:29:33;23.55;;;14.18;;
74528;SDS011;63009;52.584;5.932;2023-03-01T09:31:59;24.15;;;14.38;;
74528;SDS011;63009;52.584;5.932;2023-03-01T09:34:25;24.23;;;13.40;;
74528;SDS011;63009;52.584;5.932;2023-03-01T09:36:50;23.63;;;12.77;;
74528;SDS011;63009;52.584;5.932;2023-03-01T09:39:16;18.52;;;11.88;;
74528;SDS011;63009;52.584;5.932;2023-03-01T09:41:44;22.42;;;12.27;;
74528;SDS011;63009;52.584;5.932;2023-03-01T09:44:16;24.65;;;12.70;;
74528;SDS011;63009;52.584;5.932;2023-03-01T09:46:49;18.88;;;10.88;;
74528;SDS011;63009;52.584;5.932;2023-03-01T09:49:17;19.13;;;10.43;;
74528;SDS011;63009;52.584;5.932;2023-03-01T09:51:56;17.88;;;10.23;;
74528;SDS011;63009;52.584;5.932;2023-03-01T09:54:24;17.73;;;9.02;;
74528;SDS011;63009;52.584;5.932;2023-03-01T09:56:56;15.93;;;8.68;;
74528;SDS011;63009;52.584;5.932;2023-03-01T09:59:36;17.23;;;9.05;;
74528;SDS011;63009;52.584;5.932;2023-03-01T10:05:14;14.73;;;7.97;;
74528;SDS011;63009;52.584;5.932;2023-03-01T10:10:44;14.88;;;6.40;;
74528;SDS011;63009;52.584;5.932;2023-03-01T10:13:17;11.88;;;4.75;;
74528;SDS011;63009;52.584;5.932;2023-03-01T10:15:49;13.15;;;5.10;;
74528;SDS011;63009;52.584;5.932;2023-03-01T10:18:21;10.00;;;4.75;;
74528;SDS011;63009;52.584;5.932;2023-03-01T10:20:53;11.50;;;4.50;;
74528;SDS011;63009;52.584;5.932;2023-03-01T10:23:22;12.05;;;4.65;;
74528;SDS011;63009;52.584;5.932;2023-03-01T10:28:40;10.57;;;4.78;;
74528;SDS011;63009;52.584;5.932;2023-03-01T10:31:14;10.88;;;4.35;;
74528;SDS011;63009;52.584;5.932;2023-03-01T10:33:44;9.15;;;3.60;;
74528;SDS011;63009;52.584;5.932;2023-03-01T10:36:09;10.18;;;3.65;;
74528;SDS011;63009;52.584;5.932;2023-03-01T10:38:54;9.20;;;3.92;;
74528;SDS011;63009;52.584;5.932;2023-03-01T10:41:22;9.52;;;3.58;;
74528;SDS011;63009;52.584;5.932;2023-03-01T10:43:56;9.25;;;3.67;;
74528;SDS011;63009;52.584;5.932;2023-03-01T10:46:27;9.45;;;3.60;;
74528;SDS011;63009;52.584;5.932;2023-03-01T10:51:43;7.97;;;3.63;;
74528;SDS011;63009;52.584;5.932;2023-03-01T10:56:47;8.82;;;3.67;;
74528;SDS011;63009;52.584;5.932;2023-03-01T10:59:27;7.97;;;3.20;;
74528;SDS011;63009;52.584;5.932;2023-03-01T11:02:01;9.48;;;4.00;;
74528;SDS011;63009;52.584;5.932;2023-03-01T11:04:39;8.45;;;3.92;;
74528;SDS011;63009;52.584;5.932;2023-03-01T11:07:07;9.80;;;3.35;;
74528;SDS011;63009;52.584;5.932;2023-03-01T11:09:32;9.73;;;3.75;;
74528;SDS011;63009;52.584;5.932;2023-03-01T11:12:08;9.65;;;3.85;;
74528;SDS011;63009;52.584;5.932;2023-03-01T11:14:45;9.32;;;3.75;;
74528;SDS011;63009;52.584;5.932;2023-03-01T11:17:18;8.70;;;3.47;;
74528;SDS011;63009;52.584;5.932;2023-03-01T11:20:34;10.20;;;3.78;;
74528;SDS011;63009;52.584;5.932;2023-03-01T11:22:47;13.52;;;3.70;;
74528;SDS011;63009;52.584;5.932;2023-03-01T11:25:17;9.35;;;3.42;;
74528;SDS011;63009;52.584;5.932;2023-03-01T11:27:48;12.30;;;4.68;;
74528;SDS011;63009;52.584;5.932;2023-03-01T11:30:21;12.30;;;4.95;;
74528;SDS011;63009;52.584;5.932;2023-03-01T11:33:04;9.98;;;3.90;;
74528;SDS011;63009;52.584;5.932;2023-03-01T11:35:41;10.43;;;4.18;;
74528;SDS011;63009;52.584;5.932;2023-03-01T11:45:46;11.02;;;4.45;;
74528;SDS011;63009;52.584;5.932;2023-03-01T11:56:16;11.80;;;5.00;;
74528;SDS011;63009;52.584;5.932;2023-03-01T12:04:17;12.45;;;5.47;;
74528;SDS011;63009;52.584;5.932;2023-03-01T12:12:46;11.20;;;4.75;;
74528;SDS011;63009;52.584;5.932;2023-03-01T12:26:20;11.57;;;4.38;;
74528;SDS011;63009;52.584;5.932;2023-03-01T12:28:57;9.90;;;4.60;;
74528;SDS011;63009;52.584;5.932;2023-03-01T12:31:35;9.63;;;4.03;;
74528;SDS011;63009;52.584;5.932;2023-03-01T12:43:08;10.40;;;4.68;;
74528;SDS011;63009;52.584;5.932;2023-03-01T12:50:46;13.15;;;5.85;;
74528;SDS011;63009;52.584;5.932;2023-03-01T12:53:23;12.32;;;5.70;;
74528;SDS011;63009;52.584;5.932;2023-03-01T12:55:52;11.25;;;5.47;;
74528;SDS011;63009;52.584;5.932;2023-03-01T12:58:25;10.05;;;4.82;;
74528;SDS011;63009;52.584;5.932;2023-03-01T13:03:48;11.48;;;5.18;;
74528;SDS011;63009;52.584;5.932;2023-03-01T13:09:38;12.00;;;4.72;;
74528;SDS011;63009;52.584;5.932;2023-03-01T13:13:11;12.25;;;4.80;;
74528;SDS011;63009;52.584;5.932;2023-03-01T13:15:24;10.40;;;5.25;;
74528;SDS011;63009;52.584;5.932;2023-03-01T13:18:03;10.55;;;4.50;;
74528;SDS011;63009;52.584;5.932;2023-03-01T13:26:17;10.63;;;4.68;;
74528;SDS011;63009;52.584;5.932;2023-03-01T13:38:55;10.82;;;5.65;;
74528;SDS011;63009;52.584;5.932;2023-03-01T13:44:25;11.77;;;4.13;;
74528;SDS011;63009;52.584;5.932;2023-03-01T13:47:04;10.15;;;3.70;;
74528;SDS011;63009;52.584;5.932;2023-03-01T13:49:34;12.38;;;4.38;;
74528;SDS011;63009;52.584;5.932;2023-03-01T13:52:13;11.43;;;4.68;;
74528;SDS011;63009;52.584;5.932;2023-03-01T13:54:56;13.00;;;4.60;;
74528;SDS011;63009;52.584;5.932;2023-03-01T13:57:23;10.98;;;4.25;;
74528;SDS011;63009;52.584;5.932;2023-03-01T13:59:54;9.07;;;3.88;;
74528;SDS011;63009;52.584;5.932;2023-03-01T14:02:20;9.70;;;3.93;;
74528;SDS011;63009;52.584;5.932;2023-03-01T14:04:46;9.97;;;4.47;;
74528;SDS011;63009;52.584;5.932;2023-03-01T14:07:22;9.88;;;4.30;;
74528;SDS011;63009;52.584;5.932;2023-03-01T14:09:54;10.52;;;4.78;;
74528;SDS011;63009;52.584;5.932;2023-03-01T14:12:28;10.90;;;4.15;;
74528;SDS011;63009;52.584;5.932;2023-03-01T14:18:11;10.48;;;4.15;;
74528;SDS011;63009;52.584;5.932;2023-03-01T14:20:44;10.63;;;4.30;;
74528;SDS011;63009;52.584;5.932;2023-03-01T14:23:22;9.38;;;3.80;;
74528;SDS011;63009;52.584;5.932;2023-03-01T14:25:49;10.32;;;4.18;;
74528;SDS011;63009;52.584;5.932;2023-03-01T14:28:18;10.40;;;4.03;;
74528;SDS011;63009;52.584;5.932;2023-03-01T14:33:27;10.32;;;4.13;;
74528;SDS011;63009;52.584;5.932;2023-03-01T14:36:10;10.40;;;4.72;;
74528;SDS011;63009;52.584;5.932;2023-03-01T14:38:38;9.80;;;4.15;;
74528;SDS011;63009;52.584;5.932;2023-03-01T14:41:18;9.52;;;4.32;;
74528;SDS011;63009;52.584;5.932;2023-03-01T14:43:50;11.85;;;4.50;;
74528;SDS011;63009;52.584;5.932;2023-03-01T14:46:19;10.57;;;4.22;;
74528;SDS011;63009;52.584;5.932;2023-03-01T14:48:48;11.48;;;5.35;;
74528;SDS011;63009;52.584;5.932;2023-03-01T14:51:18;11.55;;;5.47;;
74528;SDS011;63009;52.584;5.932;2023-03-01T14:53:43;9.93;;;4.30;;
74528;SDS011;63009;52.584;5.932;2023-03-01T14:56:13;12.98;;;4.90;;
74528;SDS011;63009;52.584;5.932;2023-03-01T14:58:40;9.50;;;4.13;;
74528;SDS011;63009;52.584;5.932;2023-03-01T15:01:06;9.55;;;4.60;;
74528;SDS011;63009;52.584;5.932;2023-03-01T15:06:09;13.40;;;4.80;;
74528;SDS011;63009;52.584;5.932;2023-03-01T15:08:36;11.70;;;4.28;;
74528;SDS011;63009;52.584;5.932;2023-03-01T15:13:38;10.10;;;4.15;;
74528;SDS011;63009;52.584;5.932;2023-03-01T15:18:43;10.25;;;5.00;;
74528;SDS011;63009;52.584;5.932;2023-03-01T15:21:23;11.52;;;5.10;;
74528;SDS011;63009;52.584;5.932;2023-03-01T15:23:54;11.52;;;5.15;;
74528;SDS011;63009;52.584;5.932;2023-03-01T15:26:27;10.40;;;4.72;;
74528;SDS011;63009;52.584;5.932;2023-03-01T15:28:54;12.63;;;5.07;;
74528;SDS011;63009;52.584;5.932;2023-03-01T15:31:27;10.45;;;4.75;;
74528;SDS011;63009;52.584;5.932;2023-03-01T15:34:10;11.38;;;4.85;;
74528;SDS011;63009;52.584;5.932;2023-03-01T15:36:47;11.02;;;5.20;;
74528;SDS011;63009;52.584;5.932;2023-03-01T15:42:02;9.68;;;4.43;;
74528;SDS011;63009;52.584;5.932;2023-03-01T15:44:50;12.30;;;4.53;;
74528;SDS011;63009;52.584;5.932;2023-03-01T15:47:48;11.70;;;4.97;;
74528;SDS011;63009;52.584;5.932;2023-03-01T15:50:17;10.68;;;5.00;;
74528;SDS011;63009;52.584;5.932;2023-03-01T15:52:46;10.10;;;4.78;;
74528;SDS011;63009;52.584;5.932;2023-03-01T15:55:16;12.13;;;5.47;;
74528;SDS011;63009;52.584;5.932;2023-03-01T15:57:41;11.80;;;5.40;;
74528;SDS011;63009;52.584;5.932;2023-03-01T16:00:10;10.70;;;5.07;;
74528;SDS011;63009;52.584;5.932;2023-03-01T16:02:38;11.07;;;4.97;;
74528;SDS011;63009;52.584;5.932;2023-03-01T16:05:04;12.13;;;5.60;;
74528;SDS011;63009;52.584;5.932;2023-03-01T16:07:30;12.25;;;4.95;;
74528;SDS011;63009;52.584;5.932;2023-03-01T16:09:56;12.80;;;5.50;;
74528;SDS011;63009;52.584;5.932;2023-03-01T16:12:21;13.43;;;5.47;;
74528;SDS011;63009;52.584;5.932;2023-03-01T16:14:47;12.85;;;6.05;;
74528;SDS011;63009;52.584;5.932;2023-03-01T16:17:13;11.90;;;5.20;;
74528;SDS011;63009;52.584;5.932;2023-03-01T16:19:39;11.32;;;5.05;;
74528;SDS011;63009;52.584;5.932;2023-03-01T16:22:06;13.55;;;5.40;;
74528;SDS011;63009;52.584;5.932;2023-03-01T16:24:31;11.82;;;5.45;;
74528;SDS011;63009;52.584;5.932;2023-03-01T16:26:57;11.85;;;5.45;;
74528;SDS011;63009;52.584;5.932;2023-03-01T16:29:22;14.68;;;6.47;;
74528;SDS011;63009;52.584;5.932;2023-03-01T16:31:47;11.20;;;5.10;;
74528;SDS011;63009;52.584;5.932;2023-03-01T16:34:13;12.73;;;5.37;;
74528;SDS011;63009;52.584;5.932;2023-03-01T16:36:38;14.40;;;5.63;;